sensor_id;sensor_type;location;lat;lon;timestamp;P1;durP1;ratioP1;P2;durP2;ratioP2
39242;SDS011;29823;47.404;8.566;2022-12-18T00:01:28;77.10;;;38.78;;
39242;SDS011;29823;47.404;8.566;2022-12-18T00:03:58;73.20;;;37.53;;
39242;SDS011;29823;47.404;8.566;2022-12-18T00:06:28;69.97;;;36.05;;
39242;SDS011;29823;47.404;8.566;2022-12-18T00:08:57;73.90;;;36.97;;
39242;SDS011;29823;47.404;8.566;2022-12-18T00:11:26;78.05;;;37.03;;
39242;SDS011;29823;47.404;8.566;2022-12-18T00:13:55;70.55;;;36.88;;
39242;SDS011;29823;47.404;8.566;2022-12-18T00:16:27;69.97;;;38.28;;
39242;SDS011;29823;47.404;8.566;2022-12-18T00:18:58;73.95;;;36.40;;
39242;SDS011;29823;47.404;8.566;2022-12-18T00:21:27;74.88;;;38.80;;
39242;SDS011;29823;47.404;8.566;2022-12-18T00:23:56;72.35;;;36.83;;
39242;SDS011;29823;47.404;8.566;2022-12-18T00:26:25;71.53;;;36.70;;
39242;SDS011;29823;47.404;8.566;2022-12-18T00:28:57;69.05;;;37.55;;
39242;SDS011;29823;47.404;8.566;2022-12-18T00:31:28;76.03;;;37.90;;
39242;SDS011;29823;47.404;8.566;2022-12-18T00:33:56;75.60;;;38.22;;
39242;SDS011;29823;47.404;8.566;2022-12-18T00:36:25;88.97;;;42.63;;
39242;SDS011;29823;47.404;8.566;2022-12-18T00:38:55;81.47;;;40.30;;
39242;SDS011;29823;47.404;8.566;2022-12-18T00:41:25;75.75;;;38.92;;
39242;SDS011;29823;47.404;8.566;2022-12-18T00:44:30;77.20;;;39.35;;
39242;SDS011;29823;47.404;8.566;2022-12-18T00:46:58;75.13;;;40.15;;
39242;SDS011;29823;47.404;8.566;2022-12-18T00:49:26;73.10;;;37.90;;
39242;SDS011;29823;47.404;8.566;2022-12-18T00:51:53;76.10;;;38.97;;
39242;SDS011;29823;47.404;8.566;2022-12-18T00:54:21;74.63;;;38.33;;
39242;SDS011;29823;47.404;8.566;2022-12-18T00:56:49;78.60;;;39.15;;
39242;SDS011;29823;47.404;8.566;2022-12-18T00:59:18;74.47;;;39.17;;
39242;SDS011;29823;47.404;8.566;2022-12-18T01:01:47;78.32;;;39.33;;
39242;SDS011;29823;47.404;8.566;2022-12-18T01:04:15;78.90;;;39.72;;
39242;SDS011;29823;47.404;8.566;2022-12-18T01:06:43;83.07;;;40.33;;
39242;SDS011;29823;47.404;8.566;2022-12-18T01:09:11;79.70;;;41.30;;
39242;SDS011;29823;47.404;8.566;2022-12-18T01:11:39;83.15;;;40.15;;
39242;SDS011;29823;47.404;8.566;2022-12-18T01:14:07;79.88;;;40.90;;
39242;SDS011;29823;47.404;8.566;2022-12-18T01:16:35;78.13;;;39.67;;
39242;SDS011;29823;47.404;8.566;2022-12-18T01:19:04;85.35;;;42.38;;
39242;SDS011;29823;47.404;8.566;2022-12-18T01:21:32;81.75;;;40.88;;
39242;SDS011;29823;47.404;8.566;2022-12-18T01:24:00;85.80;;;42.45;;
39242;SDS011;29823;47.404;8.566;2022-12-18T01:26:28;81.97;;;41.13;;
39242;SDS011;29823;47.404;8.566;2022-12-18T01:28:56;83.93;;;41.92;;
39242;SDS011;29823;47.404;8.566;2022-12-18T01:31:26;83.03;;;43.10;;
39242;SDS011;29823;47.404;8.566;2022-12-18T01:33:56;83.78;;;42.88;;
39242;SDS011;29823;47.404;8.566;2022-12-18T01:36:27;82.25;;;42.88;;
39242;SDS011;29823;47.404;8.566;2022-12-18T01:38:56;78.15;;;40.47;;
39242;SDS011;29823;47.404;8.566;2022-12-18T01:41:27;88.30;;;43.08;;
39242;SDS011;29823;47.404;8.566;2022-12-18T01:47:38;83.63;;;40.22;;
39242;SDS011;29823;47.404;8.566;2022-12-18T01:50:12;82.28;;;40.38;;
39242;SDS011;29823;47.404;8.566;2022-12-18T01:52:45;82.57;;;40.85;;
39242;SDS011;29823;47.404;8.566;2022-12-18T01:55:17;83.75;;;41.65;;
39242;SDS011;29823;47.404;8.566;2022-12-18T01:57:48;83.60;;;41.45;;
39242;SDS011;29823;47.404;8.566;2022-12-18T02:00:20;87.15;;;41.38;;
39242;SDS011;29823;47.404;8.566;2022-12-18T02:02:49;83.22;;;42.60;;
39242;SDS011;29823;47.404;8.566;2022-12-18T02:05:17;84.35;;;41.95;;
39242;SDS011;29823;47.404;8.566;2022-12-18T02:08:04;90.45;;;42.88;;
39242;SDS011;29823;47.404;8.566;2022-12-18T02:10:40;81.20;;;41.90;;
39242;SDS011;29823;47.404;8.566;2022-12-18T02:13:14;87.97;;;42.40;;
39242;SDS011;29823;47.404;8.566;2022-12-18T02:15:50;88.35;;;42.22;;
39242;SDS011;29823;47.404;8.566;2022-12-18T02:18:25;85.97;;;43.63;;
39242;SDS011;29823;47.404;8.566;2022-12-18T02:20:58;89.18;;;43.50;;
39242;SDS011;29823;47.404;8.566;2022-12-18T02:23:38;88.15;;;42.50;;
39242;SDS011;29823;47.404;8.566;2022-12-18T02:26:16;95.72;;;43.78;;
39242;SDS011;29823;47.404;8.566;2022-12-18T02:28:49;88.53;;;41.83;;
39242;SDS011;29823;47.404;8.566;2022-12-18T02:31:23;91.13;;;42.80;;
39242;SDS011;29823;47.404;8.566;2022-12-18T02:33:54;172.10;;;77.10;;
39242;SDS011;29823;47.404;8.566;2022-12-18T02:36:26;152.10;;;68.90;;
39242;SDS011;29823;47.404;8.566;2022-12-18T02:38:55;91.32;;;44.67;;
39242;SDS011;29823;47.404;8.566;2022-12-18T02:41:26;90.45;;;43.90;;
39242;SDS011;29823;47.404;8.566;2022-12-18T02:43:56;86.75;;;43.28;;
39242;SDS011;29823;47.404;8.566;2022-12-18T02:46:27;90.32;;;44.03;;
39242;SDS011;29823;47.404;8.566;2022-12-18T02:49:01;94.35;;;43.05;;
39242;SDS011;29823;47.404;8.566;2022-12-18T02:51:37;90.10;;;42.70;;
39242;SDS011;29823;47.404;8.566;2022-12-18T02:54:16;92.93;;;47.05;;
39242;SDS011;29823;47.404;8.566;2022-12-18T02:56:54;107.10;;;49.63;;
39242;SDS011;29823;47.404;8.566;2022-12-18T02:59:26;97.07;;;45.60;;
39242;SDS011;29823;47.404;8.566;2022-12-18T03:02:01;95.28;;;44.78;;
39242;SDS011;29823;47.404;8.566;2022-12-18T03:04:34;104.38;;;49.00;;
39242;SDS011;29823;47.404;8.566;2022-12-18T03:07:08;97.22;;;45.03;;
39242;SDS011;29823;47.404;8.566;2022-12-18T03:09:43;117.68;;;50.53;;
39242;SDS011;29823;47.404;8.566;2022-12-18T03:12:17;112.25;;;50.65;;
39242;SDS011;29823;47.404;8.566;2022-12-18T03:14:52;93.45;;;43.67;;
39242;SDS011;29823;47.404;8.566;2022-12-18T03:17:27;100.43;;;43.20;;
39242;SDS011;29823;47.404;8.566;2022-12-18T03:19:58;93.05;;;44.25;;
39242;SDS011;29823;47.404;8.566;2022-12-18T03:22:30;84.82;;;42.33;;
39242;SDS011;29823;47.404;8.566;2022-12-18T03:25:02;90.40;;;44.05;;
39242;SDS011;29823;47.404;8.566;2022-12-18T03:30:05;83.65;;;40.45;;
39242;SDS011;29823;47.404;8.566;2022-12-18T03:32:39;98.82;;;43.63;;
39242;SDS011;29823;47.404;8.566;2022-12-18T03:35:10;92.20;;;43.38;;
39242;SDS011;29823;47.404;8.566;2022-12-18T03:37:41;87.87;;;42.47;;
39242;SDS011;29823;47.404;8.566;2022-12-18T03:40:09;99.03;;;43.78;;
39242;SDS011;29823;47.404;8.566;2022-12-18T03:42:42;90.18;;;42.40;;
39242;SDS011;29823;47.404;8.566;2022-12-18T03:45:18;94.32;;;44.22;;
39242;SDS011;29823;47.404;8.566;2022-12-18T03:47:57;93.75;;;44.30;;
39242;SDS011;29823;47.404;8.566;2022-12-18T03:50:30;95.78;;;44.60;;
39242;SDS011;29823;47.404;8.566;2022-12-18T03:53:08;93.43;;;44.50;;
39242;SDS011;29823;47.404;8.566;2022-12-18T03:55:43;95.93;;;43.13;;
39242;SDS011;29823;47.404;8.566;2022-12-18T03:58:13;94.78;;;42.78;;
39242;SDS011;29823;47.404;8.566;2022-12-18T04:00:45;92.25;;;44.25;;
39242;SDS011;29823;47.404;8.566;2022-12-18T04:05:51;89.55;;;40.22;;
39242;SDS011;29823;47.404;8.566;2022-12-18T04:08:22;98.82;;;43.30;;
39242;SDS011;29823;47.404;8.566;2022-12-18T04:10:52;100.75;;;43.38;;
39242;SDS011;29823;47.404;8.566;2022-12-18T04:13:24;93.78;;;45.00;;
39242;SDS011;29823;47.404;8.566;2022-12-18T04:15:55;99.18;;;44.15;;
39242;SDS011;29823;47.404;8.566;2022-12-18T04:18:24;96.03;;;44.90;;
39242;SDS011;29823;47.404;8.566;2022-12-18T04:20:52;93.70;;;45.28;;
39242;SDS011;29823;47.404;8.566;2022-12-18T04:23:21;93.80;;;44.53;;
39242;SDS011;29823;47.404;8.566;2022-12-18T04:25:49;96.68;;;45.47;;
39242;SDS011;29823;47.404;8.566;2022-12-18T04:28:17;97.35;;;43.67;;
39242;SDS011;29823;47.404;8.566;2022-12-18T04:30:46;89.97;;;41.60;;
39242;SDS011;29823;47.404;8.566;2022-12-18T04:33:17;95.53;;;42.45;;
39242;SDS011;29823;47.404;8.566;2022-12-18T04:35:45;86.80;;;42.20;;
39242;SDS011;29823;47.404;8.566;2022-12-18T04:38:13;94.18;;;42.90;;
39242;SDS011;29823;47.404;8.566;2022-12-18T04:40:41;93.40;;;42.33;;
39242;SDS011;29823;47.404;8.566;2022-12-18T04:43:09;85.95;;;42.53;;
39242;SDS011;29823;47.404;8.566;2022-12-18T04:45:38;91.57;;;43.38;;
39242;SDS011;29823;47.404;8.566;2022-12-18T04:48:07;91.68;;;41.53;;
39242;SDS011;29823;47.404;8.566;2022-12-18T04:50:36;94.25;;;43.22;;
39242;SDS011;29823;47.404;8.566;2022-12-18T04:53:03;91.85;;;42.65;;
39242;SDS011;29823;47.404;8.566;2022-12-18T04:55:31;106.45;;;45.17;;
39242;SDS011;29823;47.404;8.566;2022-12-18T04:57:59;102.57;;;44.83;;
39242;SDS011;29823;47.404;8.566;2022-12-18T05:00:27;101.95;;;45.83;;
39242;SDS011;29823;47.404;8.566;2022-12-18T05:02:55;96.70;;;43.92;;
39242;SDS011;29823;47.404;8.566;2022-12-18T05:05:24;99.25;;;43.33;;
39242;SDS011;29823;47.404;8.566;2022-12-18T05:07:52;96.55;;;43.83;;
39242;SDS011;29823;47.404;8.566;2022-12-18T05:10:20;96.28;;;44.55;;
39242;SDS011;29823;47.404;8.566;2022-12-18T05:12:48;97.65;;;43.35;;
39242;SDS011;29823;47.404;8.566;2022-12-18T05:15:28;96.45;;;42.13;;
39242;SDS011;29823;47.404;8.566;2022-12-18T05:17:56;93.97;;;42.25;;
39242;SDS011;29823;47.404;8.566;2022-12-18T05:20:26;92.80;;;43.80;;
39242;SDS011;29823;47.404;8.566;2022-12-18T05:22:55;96.80;;;43.42;;
39242;SDS011;29823;47.404;8.566;2022-12-18T05:25:23;96.63;;;43.03;;
39242;SDS011;29823;47.404;8.566;2022-12-18T05:27:51;93.88;;;42.95;;
39242;SDS011;29823;47.404;8.566;2022-12-18T05:30:19;100.03;;;46.40;;
39242;SDS011;29823;47.404;8.566;2022-12-18T05:32:47;104.13;;;45.25;;
39242;SDS011;29823;47.404;8.566;2022-12-18T05:35:14;99.82;;;44.90;;
39242;SDS011;29823;47.404;8.566;2022-12-18T05:37:44;101.97;;;45.88;;
39242;SDS011;29823;47.404;8.566;2022-12-18T05:40:12;98.20;;;45.58;;
39242;SDS011;29823;47.404;8.566;2022-12-18T05:42:40;100.03;;;45.35;;
39242;SDS011;29823;47.404;8.566;2022-12-18T05:45:08;95.85;;;43.45;;
39242;SDS011;29823;47.404;8.566;2022-12-18T05:47:36;97.25;;;43.65;;
39242;SDS011;29823;47.404;8.566;2022-12-18T05:50:04;101.85;;;44.97;;
39242;SDS011;29823;47.404;8.566;2022-12-18T05:52:33;100.85;;;44.20;;
39242;SDS011;29823;47.404;8.566;2022-12-18T05:55:03;95.28;;;43.95;;
39242;SDS011;29823;47.404;8.566;2022-12-18T05:57:31;104.65;;;44.28;;
39242;SDS011;29823;47.404;8.566;2022-12-18T05:59:59;102.28;;;45.25;;
39242;SDS011;29823;47.404;8.566;2022-12-18T06:02:27;97.53;;;45.13;;
39242;SDS011;29823;47.404;8.566;2022-12-18T06:04:55;99.63;;;44.33;;
39242;SDS011;29823;47.404;8.566;2022-12-18T06:07:23;103.15;;;45.30;;
39242;SDS011;29823;47.404;8.566;2022-12-18T06:09:51;104.63;;;44.25;;
39242;SDS011;29823;47.404;8.566;2022-12-18T06:12:20;97.25;;;43.85;;
39242;SDS011;29823;47.404;8.566;2022-12-18T06:14:48;93.45;;;44.00;;
39242;SDS011;29823;47.404;8.566;2022-12-18T06:17:16;98.03;;;43.08;;
39242;SDS011;29823;47.404;8.566;2022-12-18T06:19:43;96.38;;;43.65;;
39242;SDS011;29823;47.404;8.566;2022-12-18T06:22:12;101.03;;;42.75;;
39242;SDS011;29823;47.404;8.566;2022-12-18T06:24:39;96.80;;;43.65;;
39242;SDS011;29823;47.404;8.566;2022-12-18T06:27:08;91.45;;;41.90;;
39242;SDS011;29823;47.404;8.566;2022-12-18T06:29:37;98.45;;;43.33;;
39242;SDS011;29823;47.404;8.566;2022-12-18T06:32:05;93.10;;;42.55;;
39242;SDS011;29823;47.404;8.566;2022-12-18T06:34:33;91.88;;;43.20;;
39242;SDS011;29823;47.404;8.566;2022-12-18T06:37:01;95.07;;;42.70;;
39242;SDS011;29823;47.404;8.566;2022-12-18T06:39:29;94.05;;;43.60;;
39242;SDS011;29823;47.404;8.566;2022-12-18T06:41:57;95.20;;;42.88;;
39242;SDS011;29823;47.404;8.566;2022-12-18T06:44:25;100.75;;;42.42;;
39242;SDS011;29823;47.404;8.566;2022-12-18T06:46:54;95.15;;;43.08;;
39242;SDS011;29823;47.404;8.566;2022-12-18T06:49:22;94.18;;;42.20;;
39242;SDS011;29823;47.404;8.566;2022-12-18T06:51:55;93.30;;;41.90;;
39242;SDS011;29823;47.404;8.566;2022-12-18T06:54:23;98.60;;;43.33;;
39242;SDS011;29823;47.404;8.566;2022-12-18T06:56:51;90.80;;;41.60;;
39242;SDS011;29823;47.404;8.566;2022-12-18T06:59:19;99.15;;;43.55;;
39242;SDS011;29823;47.404;8.566;2022-12-18T07:01:47;91.15;;;41.67;;
39242;SDS011;29823;47.404;8.566;2022-12-18T07:04:16;95.18;;;42.33;;
39242;SDS011;29823;47.404;8.566;2022-12-18T07:06:44;99.78;;;44.28;;
39242;SDS011;29823;47.404;8.566;2022-12-18T07:09:12;97.00;;;41.80;;
39242;SDS011;29823;47.404;8.566;2022-12-18T07:11:40;99.20;;;42.83;;
39242;SDS011;29823;47.404;8.566;2022-12-18T07:14:07;96.30;;;43.38;;
39242;SDS011;29823;47.404;8.566;2022-12-18T07:16:35;90.47;;;41.83;;
39242;SDS011;29823;47.404;8.566;2022-12-18T07:19:03;92.55;;;41.63;;
39242;SDS011;29823;47.404;8.566;2022-12-18T07:21:32;91.45;;;41.42;;
39242;SDS011;29823;47.404;8.566;2022-12-18T07:24:00;94.00;;;41.65;;
39242;SDS011;29823;47.404;8.566;2022-12-18T07:26:29;96.00;;;42.75;;
39242;SDS011;29823;47.404;8.566;2022-12-18T07:28:57;92.35;;;41.35;;
39242;SDS011;29823;47.404;8.566;2022-12-18T07:31:25;95.15;;;41.17;;
39242;SDS011;29823;47.404;8.566;2022-12-18T07:33:54;93.72;;;41.35;;
39242;SDS011;29823;47.404;8.566;2022-12-18T07:36:22;95.97;;;42.78;;
39242;SDS011;29823;47.404;8.566;2022-12-18T07:38:52;91.22;;;42.28;;
39242;SDS011;29823;47.404;8.566;2022-12-18T07:41:20;96.10;;;41.95;;
39242;SDS011;29823;47.404;8.566;2022-12-18T07:43:48;88.22;;;41.05;;
39242;SDS011;29823;47.404;8.566;2022-12-18T07:46:16;90.00;;;42.55;;
39242;SDS011;29823;47.404;8.566;2022-12-18T07:48:44;97.60;;;42.10;;
39242;SDS011;29823;47.404;8.566;2022-12-18T07:51:15;86.32;;;41.13;;
39242;SDS011;29823;47.404;8.566;2022-12-18T07:53:44;86.00;;;40.17;;
39242;SDS011;29823;47.404;8.566;2022-12-18T07:56:19;82.70;;;38.80;;
39242;SDS011;29823;47.404;8.566;2022-12-18T07:58:54;85.72;;;40.10;;
39242;SDS011;29823;47.404;8.566;2022-12-18T08:01:22;80.75;;;38.67;;
39242;SDS011;29823;47.404;8.566;2022-12-18T08:03:50;86.18;;;39.03;;
39242;SDS011;29823;47.404;8.566;2022-12-18T08:06:18;80.05;;;38.90;;
39242;SDS011;29823;47.404;8.566;2022-12-18T08:08:50;88.15;;;40.38;;
39242;SDS011;29823;47.404;8.566;2022-12-18T08:11:20;80.65;;;38.65;;
39242;SDS011;29823;47.404;8.566;2022-12-18T08:13:48;82.25;;;39.60;;
39242;SDS011;29823;47.404;8.566;2022-12-18T08:16:16;89.03;;;40.17;;
39242;SDS011;29823;47.404;8.566;2022-12-18T08:18:46;88.10;;;40.50;;
39242;SDS011;29823;47.404;8.566;2022-12-18T08:21:15;78.72;;;38.08;;
39242;SDS011;29823;47.404;8.566;2022-12-18T08:23:46;80.23;;;38.33;;
39242;SDS011;29823;47.404;8.566;2022-12-18T08:26:14;86.25;;;41.15;;
39242;SDS011;29823;47.404;8.566;2022-12-18T08:28:44;83.97;;;40.80;;
39242;SDS011;29823;47.404;8.566;2022-12-18T08:31:11;86.18;;;38.97;;
39242;SDS011;29823;47.404;8.566;2022-12-18T08:33:40;79.28;;;39.42;;
39242;SDS011;29823;47.404;8.566;2022-12-18T08:36:09;81.22;;;40.15;;
39242;SDS011;29823;47.404;8.566;2022-12-18T08:38:38;84.20;;;39.80;;
39242;SDS011;29823;47.404;8.566;2022-12-18T08:41:07;80.50;;;39.00;;
39242;SDS011;29823;47.404;8.566;2022-12-18T08:43:37;77.43;;;38.22;;
39242;SDS011;29823;47.404;8.566;2022-12-18T08:46:25;76.32;;;37.60;;
39242;SDS011;29823;47.404;8.566;2022-12-18T08:48:55;84.47;;;38.65;;
39242;SDS011;29823;47.404;8.566;2022-12-18T08:51:23;82.72;;;38.45;;
39242;SDS011;29823;47.404;8.566;2022-12-18T08:53:51;74.10;;;37.03;;
39242;SDS011;29823;47.404;8.566;2022-12-18T08:56:19;74.93;;;37.50;;
39242;SDS011;29823;47.404;8.566;2022-12-18T08:58:46;73.28;;;36.25;;
39242;SDS011;29823;47.404;8.566;2022-12-18T09:01:14;81.95;;;38.15;;
39242;SDS011;29823;47.404;8.566;2022-12-18T09:03:44;87.07;;;41.65;;
39242;SDS011;29823;47.404;8.566;2022-12-18T09:06:13;78.43;;;38.20;;
39242;SDS011;29823;47.404;8.566;2022-12-18T09:08:42;77.22;;;38.60;;
39242;SDS011;29823;47.404;8.566;2022-12-18T09:11:12;70.55;;;35.30;;
39242;SDS011;29823;47.404;8.566;2022-12-18T09:13:41;60.50;;;30.95;;
39242;SDS011;29823;47.404;8.566;2022-12-18T09:16:09;60.97;;;31.23;;
39242;SDS011;29823;47.404;8.566;2022-12-18T09:18:36;58.13;;;30.33;;
39242;SDS011;29823;47.404;8.566;2022-12-18T09:21:10;62.38;;;31.70;;
39242;SDS011;29823;47.404;8.566;2022-12-18T09:23:39;62.20;;;31.42;;
39242;SDS011;29823;47.404;8.566;2022-12-18T09:26:07;70.55;;;36.83;;
39242;SDS011;29823;47.404;8.566;2022-12-18T09:28:35;68.75;;;34.00;;
39242;SDS011;29823;47.404;8.566;2022-12-18T09:31:04;72.18;;;34.70;;
39242;SDS011;29823;47.404;8.566;2022-12-18T09:33:34;64.05;;;31.83;;
39242;SDS011;29823;47.404;8.566;2022-12-18T09:36:04;65.25;;;32.67;;
39242;SDS011;29823;47.404;8.566;2022-12-18T09:38:35;63.95;;;31.52;;
39242;SDS011;29823;47.404;8.566;2022-12-18T09:41:04;66.05;;;32.75;;
39242;SDS011;29823;47.404;8.566;2022-12-18T09:43:43;68.70;;;34.00;;
39242;SDS011;29823;47.404;8.566;2022-12-18T09:46:16;59.38;;;31.58;;
39242;SDS011;29823;47.404;8.566;2022-12-18T09:48:47;62.80;;;31.00;;
39242;SDS011;29823;47.404;8.566;2022-12-18T09:53:50;60.53;;;31.02;;
39242;SDS011;29823;47.404;8.566;2022-12-18T09:56:22;59.88;;;30.23;;
39242;SDS011;29823;47.404;8.566;2022-12-18T09:58:57;58.33;;;30.67;;
39242;SDS011;29823;47.404;8.566;2022-12-18T10:01:27;60.00;;;31.60;;
39242;SDS011;29823;47.404;8.566;2022-12-18T10:04:08;67.97;;;34.05;;
39242;SDS011;29823;47.404;8.566;2022-12-18T10:06:38;59.92;;;31.48;;
39242;SDS011;29823;47.404;8.566;2022-12-18T10:09:15;62.22;;;31.38;;
39242;SDS011;29823;47.404;8.566;2022-12-18T10:11:53;59.88;;;30.60;;
39242;SDS011;29823;47.404;8.566;2022-12-18T10:14:27;62.42;;;30.83;;
39242;SDS011;29823;47.404;8.566;2022-12-18T10:17:02;56.28;;;29.55;;
39242;SDS011;29823;47.404;8.566;2022-12-18T10:19:39;61.65;;;30.27;;
39242;SDS011;29823;47.404;8.566;2022-12-18T10:22:19;61.42;;;31.20;;
39242;SDS011;29823;47.404;8.566;2022-12-18T10:24:58;59.58;;;30.67;;
39242;SDS011;29823;47.404;8.566;2022-12-18T10:27:32;62.95;;;30.73;;
39242;SDS011;29823;47.404;8.566;2022-12-18T10:29:59;65.40;;;32.65;;
39242;SDS011;29823;47.404;8.566;2022-12-18T10:32:39;67.50;;;34.33;;
39242;SDS011;29823;47.404;8.566;2022-12-18T10:35:07;62.55;;;32.67;;
39242;SDS011;29823;47.404;8.566;2022-12-18T10:40:36;63.03;;;32.55;;
39242;SDS011;29823;47.404;8.566;2022-12-18T10:43:19;62.78;;;31.00;;
39242;SDS011;29823;47.404;8.566;2022-12-18T10:45:59;60.53;;;30.73;;
39242;SDS011;29823;47.404;8.566;2022-12-18T10:48:29;58.13;;;29.45;;
39242;SDS011;29823;47.404;8.566;2022-12-18T10:50:58;64.93;;;31.17;;
39242;SDS011;29823;47.404;8.566;2022-12-18T10:53:38;60.88;;;30.95;;
39242;SDS011;29823;47.404;8.566;2022-12-18T10:56:11;60.25;;;31.42;;
39242;SDS011;29823;47.404;8.566;2022-12-18T10:58:39;63.97;;;31.00;;
39242;SDS011;29823;47.404;8.566;2022-12-18T11:01:08;66.72;;;31.38;;
39242;SDS011;29823;47.404;8.566;2022-12-18T11:03:39;65.10;;;32.22;;
39242;SDS011;29823;47.404;8.566;2022-12-18T11:06:09;58.13;;;29.98;;
39242;SDS011;29823;47.404;8.566;2022-12-18T11:08:38;62.10;;;31.33;;
39242;SDS011;29823;47.404;8.566;2022-12-18T11:11:16;60.55;;;30.10;;
39242;SDS011;29823;47.404;8.566;2022-12-18T11:13:50;67.78;;;31.30;;
39242;SDS011;29823;47.404;8.566;2022-12-18T11:16:27;60.08;;;30.77;;
39242;SDS011;29823;47.404;8.566;2022-12-18T11:19:08;56.42;;;29.20;;
39242;SDS011;29823;47.404;8.566;2022-12-18T11:21:40;61.60;;;30.77;;
39242;SDS011;29823;47.404;8.566;2022-12-18T11:24:15;63.15;;;31.13;;
39242;SDS011;29823;47.404;8.566;2022-12-18T11:26:49;56.00;;;29.52;;
39242;SDS011;29823;47.404;8.566;2022-12-18T11:29:27;59.58;;;29.58;;
39242;SDS011;29823;47.404;8.566;2022-12-18T11:32:22;60.17;;;29.45;;
39242;SDS011;29823;47.404;8.566;2022-12-18T11:34:59;60.38;;;30.40;;
39242;SDS011;29823;47.404;8.566;2022-12-18T11:37:31;58.67;;;28.63;;
39242;SDS011;29823;47.404;8.566;2022-12-18T11:40:01;55.10;;;29.25;;
39242;SDS011;29823;47.404;8.566;2022-12-18T11:42:39;56.15;;;28.58;;
39242;SDS011;29823;47.404;8.566;2022-12-18T11:45:26;54.08;;;28.27;;
39242;SDS011;29823;47.404;8.566;2022-12-18T11:47:58;51.22;;;28.17;;
39242;SDS011;29823;47.404;8.566;2022-12-18T11:50:32;64.25;;;29.90;;
39242;SDS011;29823;47.404;8.566;2022-12-18T11:53:11;57.85;;;29.27;;
39242;SDS011;29823;47.404;8.566;2022-12-18T11:55:40;55.17;;;28.55;;
39242;SDS011;29823;47.404;8.566;2022-12-18T11:58:17;59.85;;;30.98;;
39242;SDS011;29823;47.404;8.566;2022-12-18T12:00:58;61.83;;;32.00;;
39242;SDS011;29823;47.404;8.566;2022-12-18T12:03:47;64.60;;;32.33;;
39242;SDS011;29823;47.404;8.566;2022-12-18T12:06:30;61.60;;;31.17;;
39242;SDS011;29823;47.404;8.566;2022-12-18T12:09:08;64.05;;;31.10;;
39242;SDS011;29823;47.404;8.566;2022-12-18T12:11:49;64.32;;;31.92;;
39242;SDS011;29823;47.404;8.566;2022-12-18T12:14:29;66.60;;;33.25;;
39242;SDS011;29823;47.404;8.566;2022-12-18T12:17:09;65.90;;;33.15;;
39242;SDS011;29823;47.404;8.566;2022-12-18T12:19:44;61.80;;;32.30;;
39242;SDS011;29823;47.404;8.566;2022-12-18T12:22:22;61.50;;;30.05;;
39242;SDS011;29823;47.404;8.566;2022-12-18T12:25:04;58.28;;;29.98;;
39242;SDS011;29823;47.404;8.566;2022-12-18T12:27:45;62.67;;;31.30;;
39242;SDS011;29823;47.404;8.566;2022-12-18T12:30:24;62.22;;;31.65;;
39242;SDS011;29823;47.404;8.566;2022-12-18T12:33:01;65.15;;;32.03;;
39242;SDS011;29823;47.404;8.566;2022-12-18T12:35:44;60.00;;;30.40;;
39242;SDS011;29823;47.404;8.566;2022-12-18T12:38:19;66.30;;;32.88;;
39242;SDS011;29823;47.404;8.566;2022-12-18T12:40:51;68.65;;;31.92;;
39242;SDS011;29823;47.404;8.566;2022-12-18T12:43:31;59.65;;;31.17;;
39242;SDS011;29823;47.404;8.566;2022-12-18T12:46:09;63.13;;;31.80;;
39242;SDS011;29823;47.404;8.566;2022-12-18T12:48:40;66.97;;;32.88;;
39242;SDS011;29823;47.404;8.566;2022-12-18T12:51:12;64.93;;;32.78;;
39242;SDS011;29823;47.404;8.566;2022-12-18T12:53:43;61.13;;;31.63;;
39242;SDS011;29823;47.404;8.566;2022-12-18T12:56:13;59.67;;;29.63;;
39242;SDS011;29823;47.404;8.566;2022-12-18T12:58:45;64.10;;;31.83;;
39242;SDS011;29823;47.404;8.566;2022-12-18T13:01:24;59.75;;;31.20;;
39242;SDS011;29823;47.404;8.566;2022-12-18T13:04:08;65.43;;;31.67;;
39242;SDS011;29823;47.404;8.566;2022-12-18T13:06:47;64.90;;;33.03;;
39242;SDS011;29823;47.404;8.566;2022-12-18T13:09:21;61.83;;;30.83;;
39242;SDS011;29823;47.404;8.566;2022-12-18T13:11:49;65.43;;;32.83;;
39242;SDS011;29823;47.404;8.566;2022-12-18T13:14:35;68.30;;;33.25;;
39242;SDS011;29823;47.404;8.566;2022-12-18T13:20:06;64.85;;;32.38;;
39242;SDS011;29823;47.404;8.566;2022-12-18T13:22:38;63.75;;;32.72;;
39242;SDS011;29823;47.404;8.566;2022-12-18T13:30:55;64.60;;;32.95;;
39242;SDS011;29823;47.404;8.566;2022-12-18T13:36:52;69.22;;;32.08;;
39242;SDS011;29823;47.404;8.566;2022-12-18T13:39:21;66.97;;;34.25;;
39242;SDS011;29823;47.404;8.566;2022-12-18T13:45:34;64.83;;;31.13;;
39242;SDS011;29823;47.404;8.566;2022-12-18T13:48:11;63.35;;;31.63;;
39242;SDS011;29823;47.404;8.566;2022-12-18T13:50:49;65.80;;;31.83;;
39242;SDS011;29823;47.404;8.566;2022-12-18T13:53:21;68.97;;;31.77;;
39242;SDS011;29823;47.404;8.566;2022-12-18T13:55:51;70.00;;;33.40;;
39242;SDS011;29823;47.404;8.566;2022-12-18T13:58:19;74.63;;;33.72;;
39242;SDS011;29823;47.404;8.566;2022-12-18T14:00:47;66.25;;;34.25;;
39242;SDS011;29823;47.404;8.566;2022-12-18T14:03:19;70.95;;;33.50;;
39242;SDS011;29823;47.404;8.566;2022-12-18T14:05:54;65.05;;;32.13;;
39242;SDS011;29823;47.404;8.566;2022-12-18T14:08:27;65.15;;;33.85;;
39242;SDS011;29823;47.404;8.566;2022-12-18T14:11:03;64.43;;;31.50;;
39242;SDS011;29823;47.404;8.566;2022-12-18T14:13:35;64.72;;;32.72;;
39242;SDS011;29823;47.404;8.566;2022-12-18T14:16:06;70.15;;;33.72;;
39242;SDS011;29823;47.404;8.566;2022-12-18T14:18:38;69.82;;;33.97;;
39242;SDS011;29823;47.404;8.566;2022-12-18T14:21:20;71.43;;;33.63;;
39242;SDS011;29823;47.404;8.566;2022-12-18T14:23:49;62.30;;;31.15;;
39242;SDS011;29823;47.404;8.566;2022-12-18T14:26:31;67.25;;;31.73;;
39242;SDS011;29823;47.404;8.566;2022-12-18T14:29:00;68.75;;;32.88;;
39242;SDS011;29823;47.404;8.566;2022-12-18T14:31:45;62.53;;;31.67;;
39242;SDS011;29823;47.404;8.566;2022-12-18T14:34:15;66.32;;;32.15;;
39242;SDS011;29823;47.404;8.566;2022-12-18T14:36:52;66.38;;;32.13;;
39242;SDS011;29823;47.404;8.566;2022-12-18T14:39:22;67.80;;;32.08;;
39242;SDS011;29823;47.404;8.566;2022-12-18T14:41:52;62.58;;;30.63;;
39242;SDS011;29823;47.404;8.566;2022-12-18T14:44:21;67.15;;;31.92;;
39242;SDS011;29823;47.404;8.566;2022-12-18T14:46:49;65.45;;;31.55;;
39242;SDS011;29823;47.404;8.566;2022-12-18T14:49:21;64.68;;;30.30;;
39242;SDS011;29823;47.404;8.566;2022-12-18T14:54:22;62.97;;;30.10;;
39242;SDS011;29823;47.404;8.566;2022-12-18T14:56:54;62.38;;;31.02;;
39242;SDS011;29823;47.404;8.566;2022-12-18T14:59:28;63.72;;;30.20;;
39242;SDS011;29823;47.404;8.566;2022-12-18T15:01:59;67.22;;;31.35;;
39242;SDS011;29823;47.404;8.566;2022-12-18T15:04:32;64.82;;;32.47;;
39242;SDS011;29823;47.404;8.566;2022-12-18T15:07:03;67.35;;;31.52;;
39242;SDS011;29823;47.404;8.566;2022-12-18T15:09:35;71.03;;;33.00;;
39242;SDS011;29823;47.404;8.566;2022-12-18T15:12:04;72.85;;;34.42;;
39242;SDS011;29823;47.404;8.566;2022-12-18T15:14:33;79.85;;;37.13;;
39242;SDS011;29823;47.404;8.566;2022-12-18T15:17:06;70.82;;;32.60;;
39242;SDS011;29823;47.404;8.566;2022-12-18T15:19:43;66.78;;;31.77;;